createdAt,value
2023-04-29T00:01:38.218Z,100804.00
2023-04-29T00:06:40.359Z,100802.28
2023-04-29T00:11:42.108Z,100807.63
2023-04-29T00:16:43.948Z,100814.63
2023-04-29T00:21:45.812Z,100808.41
2023-04-29T00:26:47.635Z,100818.09
2023-04-29T00:31:49.704Z,100829.03
2023-04-29T00:36:51.481Z,100835.06
2023-04-29T00:41:53.777Z,100832.34
2023-04-29T00:46:56.108Z,100834.22
2023-04-29T00:51:58.368Z,100837.72
2023-04-29T00:57:01.930Z,100838.75
2023-04-29T01:02:04.671Z,100835.13
2023-04-29T01:07:23.675Z,100840.22
2023-04-29T01:12:37.265Z,100844.88
2023-04-29T01:17:47.964Z,100848.31
2023-04-29T01:22:49.758Z,100846.63
2023-04-29T01:28:09.032Z,100850.06
2023-04-29T01:33:29.505Z,100851.03
2023-04-29T01:38:45.101Z,100852.75
2023-04-29T01:43:50.218Z,100853.63
2023-04-29T01:48:55.411Z,100866.22
2023-04-29T01:53:57.609Z,100868.69
2023-04-29T01:58:59.345Z,100869.41
2023-04-29T02:04:01.190Z,100867.78
2023-04-29T02:09:03.299Z,100873.16
2023-04-29T02:14:05.071Z,100876.69
2023-04-29T02:19:06.831Z,100890.88
2023-04-29T02:24:08.647Z,100893.72
2023-04-29T02:29:10.567Z,100893.66
2023-04-29T02:34:12.287Z,100906.91
2023-04-29T02:39:14.143Z,100912.16
2023-04-29T02:44:16.157Z,100913.94
2023-04-29T02:49:17.973Z,100915.72
2023-04-29T02:54:20.152Z,100923.66
2023-04-29T02:59:22.714Z,100924.75
2023-04-29T03:04:24.919Z,100939.69
2023-04-29T03:09:26.934Z,100930.00
2023-04-29T03:14:28.787Z,100942.41
2023-04-29T03:19:31.057Z,100946.03
2023-04-29T03:24:32.976Z,100954.84
2023-04-29T03:29:34.754Z,100953.28
2023-04-29T03:34:37.088Z,100954.84
2023-04-29T03:39:38.880Z,100955.41
2023-04-29T03:44:40.731Z,100965.50
2023-04-29T03:49:42.845Z,100961.91
2023-04-29T03:54:44.688Z,100953.94
2023-04-29T03:59:50.629Z,100964.66
2023-04-29T04:04:53.099Z,100970.03
2023-04-29T04:09:55.274Z,100975.22
2023-04-29T04:14:57.756Z,100978.78
2023-04-29T04:19:59.538Z,100986.72
2023-04-29T04:25:01.438Z,100991.19
2023-04-29T04:30:03.359Z,100994.69
2023-04-29T04:35:06.736Z,101006.34
2023-04-29T04:40:09.534Z,101015.97
2023-04-29T04:45:11.722Z,101016.81
2023-04-29T04:50:13.578Z,101030.13
2023-04-29T04:55:15.564Z,101034.66
2023-04-29T05:00:17.598Z,101040.47
2023-04-29T05:05:19.361Z,101047.19
2023-04-29T05:10:21.253Z,101049.91
2023-04-29T05:15:23.027Z,101050.78
2023-04-29T05:20:24.973Z,101055.03
2023-04-29T05:25:26.772Z,101067.38
2023-04-29T05:30:28.652Z,101073.66
2023-04-29T05:35:31.337Z,101074.56
2023-04-29T05:40:33.120Z,101076.31
2023-04-29T05:45:34.884Z,101086.16
2023-04-29T05:50:36.655Z,101093.97
2023-04-29T05:55:39.593Z,101097.66
2023-04-29T06:00:41.448Z,101105.56
2023-04-29T06:05:43.541Z,101114.34
2023-04-29T06:10:46.531Z,101121.81
2023-04-29T06:15:48.436Z,101127.28
2023-04-29T06:20:50.219Z,101138.66
2023-04-29T06:25:53.079Z,101139.38
2023-04-29T06:30:55.138Z,101150.94
2023-04-29T06:35:57.367Z,101147.34
2023-04-29T06:41:01.109Z,101158.19
2023-04-29T06:46:03.212Z,101157.31
2023-04-29T06:51:05.117Z,101169.56
2023-04-29T06:56:07.506Z,101180.19
2023-04-29T07:01:09.590Z,101170.50
2023-04-29T07:06:11.406Z,101186.38
2023-04-29T07:11:13.252Z,101182.84
2023-04-29T07:16:20.221Z,101196.31
2023-04-29T07:21:22.061Z,101202.56
2023-04-29T07:26:23.848Z,101203.34
2023-04-29T07:31:25.766Z,101210.53
2023-04-29T07:36:28.975Z,101225.84
2023-04-29T07:41:31.345Z,101222.75
2023-04-29T07:46:33.166Z,101222.81
2023-04-29T07:51:35.018Z,101241.38
2023-04-29T07:56:36.801Z,101233.41
2023-04-29T08:01:38.800Z,101247.78
2023-04-29T08:06:41.995Z,101246.66
2023-04-29T08:11:45.107Z,101246.06
2023-04-29T08:16:47.062Z,101253.31
2023-04-29T08:21:48.890Z,101259.38
2023-04-29T08:26:51.182Z,101261.13
2023-04-29T08:31:53.312Z,101271.72
2023-04-29T08:36:55.138Z,101274.38
2023-04-29T08:41:57.646Z,101278.63
2023-04-29T08:47:00.535Z,101287.56
2023-04-29T08:52:02.997Z,101286.75
2023-04-29T08:57:06.706Z,101284.97
2023-04-29T09:02:13.396Z,101292.09
2023-04-29T09:07:17.031Z,101287.69
2023-04-29T09:12:18.979Z,101287.69
2023-04-29T09:17:39.229Z,101292.88
2023-04-29T09:23:01.737Z,101299.13
2023-04-29T09:28:17.114Z,101308.91
2023-04-29T09:33:18.941Z,101309.75
2023-04-29T09:38:22.279Z,101313.09
2023-04-29T09:43:24.216Z,101319.28
2023-04-29T09:48:31.908Z,101324.44
2023-04-29T09:53:38.106Z,101323.47
2023-04-29T09:58:40.616Z,101324.34
2023-04-29T10:03:44.046Z,101329.66
2023-04-29T10:08:48.856Z,101333.31
2023-04-29T10:13:52.458Z,101343.03
2023-04-29T10:18:56.692Z,101352.06
2023-04-29T10:23:59.993Z,101344.88
2023-04-29T10:29:02.476Z,101342.22
2023-04-29T10:34:04.349Z,101340.50
2023-04-29T10:39:14.021Z,101348.50
2023-04-29T10:44:16.031Z,101339.63
2023-04-29T10:49:17.832Z,101350.09
2023-04-29T10:54:25.766Z,101341.16
2023-04-29T10:59:33.381Z,101349.13
2023-04-29T11:04:35.227Z,101353.59
2023-04-29T11:09:38.906Z,101355.09
2023-04-29T11:14:40.686Z,101351.66
2023-04-29T11:19:49.337Z,101348.28
2023-04-29T11:25:02.508Z,101353.50
2023-04-29T11:30:07.902Z,101362.97
2023-04-29T11:35:14.819Z,101355.31
2023-04-29T11:40:17.288Z,101357.19
2023-04-29T11:45:19.902Z,101363.25
2023-04-29T11:50:21.719Z,101371.22
2023-04-29T11:55:23.545Z,101370.28
2023-04-29T12:00:25.392Z,101376.34
2023-04-29T12:05:27.372Z,101370.81
2023-04-29T12:10:29.373Z,101366.50
2023-04-29T12:15:32.831Z,101364.03
2023-04-29T12:20:34.797Z,101362.28
2023-04-29T12:25:36.762Z,101359.63
2023-04-29T12:30:38.597Z,101358.94
2023-04-29T12:35:40.473Z,101355.19
2023-04-29T12:40:42.321Z,101350.78
2023-04-29T12:45:44.249Z,101365.56
2023-04-29T12:50:49.991Z,101365.50
2023-04-29T12:55:52.520Z,101364.56
2023-04-29T13:00:54.331Z,101367.44
2023-04-29T13:05:56.235Z,101371.75
2023-04-29T13:10:58.171Z,101370.00
2023-04-29T13:16:00.752Z,101373.63
2023-04-29T13:21:02.894Z,101376.03
2023-04-29T13:26:05.546Z,101361.75
2023-04-29T13:31:07.329Z,101362.50
2023-04-29T13:36:09.308Z,101366.09
2023-04-29T13:41:16.373Z,101359.03
2023-04-29T13:46:20.783Z,101352.00
2023-04-29T13:52:02.180Z,101352.06
2023-04-29T14:06:56.820Z,101370.00
2023-04-29T14:11:58.698Z,101379.00
2023-04-29T14:17:01.587Z,101375.69
2023-04-29T14:22:03.813Z,101390.38
2023-04-29T14:27:05.623Z,101385.19
2023-04-29T14:32:07.777Z,101386.13
2023-04-29T14:37:09.569Z,101396.53
2023-04-29T14:42:13.024Z,101404.63
2023-04-29T14:47:14.884Z,101405.88
2023-04-29T14:52:16.833Z,101407.28
2023-04-29T14:57:18.635Z,101414.59
2023-04-29T15:02:20.483Z,101421.13
2023-04-29T15:07:23.044Z,101416.06
2023-04-29T15:12:25.406Z,101415.06
2023-04-29T15:17:27.364Z,101418.03
2023-04-29T15:22:29.450Z,101419.94
2023-04-29T15:27:31.246Z,101420.44
2023-04-29T15:32:33.437Z,101418.97
2023-04-29T15:37:35.344Z,101423.44
2023-04-29T15:42:37.241Z,101414.53
2023-04-29T15:47:39.170Z,101417.13
2023-04-29T15:52:41.104Z,101414.81
2023-04-29T15:57:43.038Z,101416.06
2023-04-29T16:02:45.361Z,101421.38
2023-04-29T16:07:47.158Z,101424.72
2023-04-29T16:12:49.343Z,101424.06
2023-04-29T16:17:52.190Z,101427.31
2023-04-29T16:22:54.095Z,101431.44
2023-04-29T16:27:55.980Z,101428.03
2023-04-29T16:32:57.939Z,101442.03
2023-04-29T16:37:59.855Z,101437.56
2023-04-29T16:43:01.710Z,101441.28
2023-04-29T16:48:03.734Z,101435.25
2023-04-29T16:53:05.876Z,101440.75
2023-04-29T16:58:07.663Z,101444.84
2023-04-29T17:03:10.022Z,101444.31
2023-04-29T17:08:11.962Z,101443.78
2023-04-29T17:13:13.762Z,101440.16
2023-04-29T17:18:15.764Z,101439.38
2023-04-29T17:23:17.642Z,101425.84
2023-04-29T17:28:19.910Z,101430.09
2023-04-29T17:33:22.639Z,101436.34
2023-04-29T17:38:24.484Z,101433.41
2023-04-29T17:43:27.558Z,101426.53
2023-04-29T17:48:29.313Z,101422.09
2023-04-29T17:53:33.347Z,101426.63
2023-04-29T17:58:35.141Z,101429.34
2023-04-29T18:03:36.966Z,101431.94
2023-04-29T18:08:38.928Z,101426.72
2023-04-29T18:13:41.481Z,101437.38
2023-04-29T18:18:43.496Z,101435.72
2023-04-29T18:23:45.389Z,101433.81
2023-04-29T18:28:48.140Z,101439.13
2023-04-29T18:33:49.914Z,101437.41
2023-04-29T18:38:51.847Z,101439.13
2023-04-29T18:43:53.661Z,101444.59
2023-04-29T18:48:55.394Z,101441.09
2023-04-29T18:53:57.280Z,101441.81
2023-04-29T18:58:59.084Z,101445.81
2023-04-29T19:04:04.726Z,101456.25
2023-04-29T19:09:06.681Z,101455.47
2023-04-29T19:14:08.582Z,101457.31
2023-04-29T19:19:10.356Z,101454.81
2023-04-29T19:24:12.430Z,101462.03
2023-04-29T19:29:14.213Z,101471.84
2023-04-29T19:34:16.376Z,101472.69
2023-04-29T19:39:18.791Z,101479.81
2023-04-29T19:44:20.602Z,101482.53
2023-04-29T19:49:22.454Z,101480.81
2023-04-29T19:54:24.257Z,101486.84
2023-04-29T19:59:26.562Z,101480.63
2023-04-29T20:04:28.483Z,101489.41
2023-04-29T20:09:31.867Z,101492.06
2023-04-29T20:14:33.781Z,101504.44
2023-04-29T20:19:35.657Z,101497.41
2023-04-29T20:24:37.419Z,101504.31
2023-04-29T20:29:39.265Z,101507.69
2023-04-29T20:34:41.016Z,101514.09
2023-04-29T20:39:43.366Z,101515.94
2023-04-29T20:44:45.312Z,101519.84
2023-04-29T20:49:47.085Z,101530.50
2023-04-29T20:54:48.994Z,101531.25
2023-04-29T20:59:51.828Z,101533.88
2023-04-29T21:04:53.874Z,101532.63
2023-04-29T21:09:56.128Z,101535.34
2023-04-29T21:14:58.127Z,101536.78
2023-04-29T21:20:00.047Z,101531.19
2023-04-29T21:25:01.886Z,101534.97
2023-04-29T21:30:05.183Z,101532.19
2023-04-29T21:35:07.982Z,101538.44
2023-04-29T21:40:10.439Z,101545.56
2023-04-29T21:45:17.891Z,101545.75
2023-04-29T21:50:19.974Z,101543.09
2023-04-29T21:55:21.949Z,101541.41
2023-04-29T22:00:41.274Z,101560.69
2023-04-29T22:05:43.180Z,101555.41
2023-04-29T22:10:44.985Z,101558.88
2023-04-29T22:15:46.831Z,101563.38
2023-04-29T22:20:48.571Z,101565.81
2023-04-29T22:25:50.337Z,101570.50
2023-04-29T22:30:52.335Z,101562.59
2023-04-29T22:35:54.183Z,101572.22
2023-04-29T22:40:56.013Z,101577.81
2023-04-29T22:45:57.867Z,101581.06
2023-04-29T22:50:59.791Z,101576.69
2023-04-29T22:56:02.359Z,101578.56
2023-04-29T23:01:04.179Z,101581.31
2023-04-29T23:06:06.989Z,101596.47
2023-04-29T23:11:08.897Z,101591.97
2023-04-29T23:16:11.269Z,101590.91
2023-04-29T23:21:13.045Z,101599.91
2023-04-29T23:26:14.800Z,101598.22
2023-04-29T23:31:16.840Z,101600.84
2023-04-29T23:36:18.750Z,101614.00
2023-04-29T23:41:21.086Z,101614.06
2023-04-29T23:46:23.165Z,101614.94
2023-04-29T23:51:26.480Z,101618.47
2023-04-29T23:56:33.170Z,101620.34
